Time;durP1;ratioP1;P1;durP2;ratioP2;P2;SDS_P1;SDS_P2;PMS_P1;PMS_P2;Temp;Humidity;BMP_temperature;BMP_pressure;BME280_temperature;BME280_humidity;BME280_pressure;Samples;Min_cycle;Max_cycle;Signal;HPM_P1;HPM_P2
2023/01/06 00:01:33;;;;;;;21.92;20.23;;;12.30;99.90;;;;;;4920247;29;20039;-85
2023/01/06 00:03:59;;;;;;;21.45;20.15;;;12.30;99.90;;;;;;4920566;29;20393;-85
2023/01/06 00:06:27;;;;;;;20.25;18.95;;;12.30;99.90;;;;;;4920498;29;20473;-85
2023/01/06 00:08:58;;;;;;;24.10;22.45;;;12.30;99.90;;;;;;4937684;29;20054;-85
2023/01/06 00:11:24;;;;;;;23.00;21.33;;;12.20;99.90;;;;;;4905150;29;20035;-85
2023/01/06 00:13:51;;;;;;;19.85;18.58;;;12.20;99.90;;;;;;4920680;29;20057;-86
2023/01/06 00:16:18;;;;;;;22.48;20.98;;;12.10;99.90;;;;;;4888360;29;20040;-85
2023/01/06 00:18:44;;;;;;;22.75;21.17;;;12.10;99.90;;;;;;4904518;29;20055;-84
2023/01/06 00:21:11;;;;;;;23.05;21.52;;;12.10;99.90;;;;;;4930771;29;20429;-85
2023/01/06 00:23:37;;;;;;;23.40;21.70;;;12.10;99.90;;;;;;4936196;29;20043;-85
2023/01/06 00:26:04;;;;;;;23.55;22.05;;;12.10;99.90;;;;;;4920231;29;20040;-84
2023/01/06 00:28:30;;;;;;;24.52;22.65;;;12.20;99.90;;;;;;4920438;29;20032;-86
2023/01/06 00:30:56;;;;;;;23.50;22.00;;;12.20;99.90;;;;;;4903095;29;20499;-86
2023/01/06 00:33:23;;;;;;;24.33;22.92;;;12.30;99.90;;;;;;4919394;29;20044;-85
2023/01/06 00:35:49;;;;;;;23.67;22.27;;;12.30;99.90;;;;;;4920250;29;20039;-86
2023/01/06 00:38:15;;;;;;;23.85;22.33;;;12.30;99.90;;;;;;4920194;29;20043;-85
2023/01/06 00:40:41;;;;;;;22.60;21.13;;;12.30;99.90;;;;;;4920384;29;20054;-85
2023/01/06 00:43:07;;;;;;;22.75;21.45;;;12.30;99.90;;;;;;4937100;29;20032;-85
2023/01/06 00:45:33;;;;;;;25.02;23.35;;;12.30;99.90;;;;;;4936414;28;20040;-85
2023/01/06 00:48:00;;;;;;;23.25;21.50;;;12.40;99.90;;;;;;4935578;29;20028;-85
2023/01/06 00:50:26;;;;;;;23.88;22.48;;;12.40;99.90;;;;;;4936938;29;20036;-85
2023/01/06 00:52:52;;;;;;;24.20;22.80;;;12.50;99.90;;;;;;4935680;29;20470;-85
2023/01/06 00:55:18;;;;;;;25.80;23.92;;;12.50;99.90;;;;;;4919758;29;20047;-85
2023/01/06 00:57:45;;;;;;;26.95;25.27;;;12.60;99.90;;;;;;4936644;29;20035;-85
2023/01/06 01:00:12;;;;;;;26.63;25.08;;;12.60;99.90;;;;;;4936251;28;20038;-85
2023/01/06 01:02:38;;;;;;;24.40;22.95;;;12.60;99.90;;;;;;4903707;29;20051;-85
2023/01/06 01:05:04;;;;;;;24.95;23.45;;;12.60;99.90;;;;;;4936776;29;20040;-85
2023/01/06 01:07:30;;;;;;;25.70;24.17;;;12.60;99.90;;;;;;4936417;29;20031;-85
2023/01/06 01:09:56;;;;;;;26.73;24.90;;;12.60;99.90;;;;;;4919744;29;20050;-86
2023/01/06 01:12:22;;;;;;;24.55;22.95;;;12.60;99.90;;;;;;4919604;29;20035;-85
2023/01/06 01:14:50;;;;;;;22.55;21.25;;;12.60;99.90;;;;;;4919249;29;20027;-85
2023/01/06 01:17:21;;;;;;;23.73;22.30;;;12.60;99.90;;;;;;4903103;29;20047;-85
2023/01/06 01:19:48;;;;;;;24.58;22.88;;;12.60;99.90;;;;;;4903851;29;20028;-85
2023/01/06 01:22:14;;;;;;;26.65;24.83;;;12.60;99.90;;;;;;4935313;29;20028;-85
2023/01/06 01:24:40;;;;;;;23.70;22.25;;;12.70;99.90;;;;;;4919365;29;20024;-86
2023/01/06 01:27:07;;;;;;;23.70;22.02;;;12.70;99.90;;;;;;4934940;29;20028;-85
2023/01/06 01:29:33;;;;;;;22.27;20.75;;;12.70;99.90;;;;;;4934674;29;20046;-86
2023/01/06 01:31:59;;;;;;;20.33;18.92;;;12.70;99.90;;;;;;4918847;29;20504;-85
2023/01/06 01:34:25;;;;;;;22.08;20.80;;;12.70;99.90;;;;;;4934982;29;20035;-85
2023/01/06 01:36:52;;;;;;;20.35;18.95;;;12.70;99.90;;;;;;4934854;29;20470;-85
2023/01/06 01:39:24;;;;;;;23.42;21.73;;;12.70;99.90;;;;;;4934978;29;20517;-86
2023/01/06 01:41:50;;;;;;;20.92;19.50;;;12.70;99.90;;;;;;4917968;29;20044;-85
2023/01/06 01:44:49;;;;;;;22.50;21.08;;;12.60;99.90;;;;;;4934589;29;20043;-85
2023/01/06 01:47:26;;;;;;;21.27;19.98;;;12.70;99.90;;;;;;4934391;28;20414;-85
2023/01/06 01:49:59;;;;;;;19.80;18.40;;;12.70;99.90;;;;;;4919009;29;20024;-85
2023/01/06 01:52:25;;;;;;;21.88;20.42;;;12.70;99.90;;;;;;4919039;29;20030;-85
2023/01/06 01:54:51;;;;;;;20.63;19.25;;;12.70;99.90;;;;;;4918852;29;20032;-85
2023/01/06 01:57:26;;;;;;;21.80;19.83;;;12.70;99.90;;;;;;4934641;29;20020;-85
2023/01/06 01:59:53;;;;;;;19.02;17.75;;;12.70;99.90;;;;;;4918456;29;20047;-85
2023/01/06 02:02:19;;;;;;;19.70;18.33;;;12.60;99.90;;;;;;4918376;29;20036;-85
2023/01/06 02:04:50;;;;;;;19.40;18.23;;;12.70;99.90;;;;;;4918807;29;20035;-85
2023/01/06 02:07:17;;;;;;;22.25;20.80;;;12.70;99.90;;;;;;4912089;29;20032;-85
2023/01/06 02:09:51;;;;;;;24.38;22.70;;;12.70;99.90;;;;;;4918538;29;20024;-85
2023/01/06 02:12:17;;;;;;;22.85;21.38;;;12.70;99.90;;;;;;4918651;29;20031;-85
2023/01/06 02:14:43;;;;;;;23.25;21.42;;;12.70;99.90;;;;;;4935371;29;20031;-85
2023/01/06 02:17:21;;;;;;;22.08;20.70;;;12.70;99.90;;;;;;4935060;28;20417;-85
2023/01/06 02:20:06;;;;;;;21.35;19.88;;;12.70;99.90;;;;;;4935345;29;20037;-85
2023/01/06 02:23:26;;;;;;;22.70;21.20;;;12.70;99.90;;;;;;4934161;29;20036;-85
2023/01/06 02:26:23;;;;;;;21.48;20.00;;;12.70;99.90;;;;;;4876952;29;20478;-86
2023/01/06 02:28:58;;;;;;;22.10;20.60;;;12.70;99.90;;;;;;4875868;29;20040;-85
2023/01/06 02:31:39;;;;;;;21.67;19.83;;;12.60;99.90;;;;;;4860578;29;20045;-85
2023/01/06 02:34:32;;;;;;;19.35;18.20;;;12.50;99.90;;;;;;4876670;29;20049;-85
2023/01/06 02:37:05;;;;;;;19.40;18.00;;;12.60;99.90;;;;;;4876626;29;20036;-86
2023/01/06 02:40:03;;;;;;;19.42;17.88;;;12.50;99.90;;;;;;4861385;29;20041;-85
2023/01/06 02:42:53;;;;;;;18.98;17.77;;;12.50;99.90;;;;;;4860948;29;20053;-85
2023/01/06 02:45:46;;;;;;;21.38;20.08;;;12.50;99.90;;;;;;4820664;29;20066;-85
2023/01/06 02:48:45;;;;;;;22.38;20.83;;;12.60;99.90;;;;;;4821289;29;20058;-85
2023/01/06 02:51:30;;;;;;;22.55;21.13;;;12.60;99.90;;;;;;4732027;30;20535;-85
2023/01/06 02:54:29;;;;;;;21.85;20.38;;;12.60;99.90;;;;;;4720914;30;20048;-85
2023/01/06 02:57:44;;;;;;;23.90;22.30;;;12.70;99.90;;;;;;4722060;30;20056;-85
2023/01/06 03:00:39;;;;;;;23.92;22.42;;;12.70;99.90;;;;;;4732766;29;20059;-85
2023/01/06 03:03:13;;;;;;;23.70;22.15;;;12.60;99.90;;;;;;4778135;29;20035;-85
2023/01/06 03:05:40;;;;;;;24.92;23.38;;;12.70;99.90;;;;;;4782567;29;20043;-86
2023/01/06 03:08:10;;;;;;;25.38;23.77;;;12.70;99.90;;;;;;4783506;29;20051;-86
2023/01/06 03:10:36;;;;;;;24.92;23.02;;;12.50;99.90;;;;;;4787033;30;20055;-86
2023/01/06 03:13:34;;;;;;;26.70;25.00;;;12.40;99.90;;;;;;4783579;30;20043;-86
2023/01/06 03:16:00;;;;;;;24.20;22.70;;;12.40;99.90;;;;;;4786465;29;20043;-85
2023/01/06 03:18:26;;;;;;;25.92;24.45;;;12.50;99.90;;;;;;4786870;29;20635;-86
2023/01/06 03:20:52;;;;;;;27.45;25.73;;;12.50;99.90;;;;;;4787300;30;20055;-87
2023/01/06 03:23:19;;;;;;;25.55;23.98;;;12.40;99.90;;;;;;4818094;29;20050;-86
2023/01/06 03:25:45;;;;;;;25.05;23.55;;;12.50;99.90;;;;;;4810686;29;20038;-85
2023/01/06 03:28:11;;;;;;;25.30;23.63;;;12.40;99.90;;;;;;4900565;29;20040;-85
2023/01/06 03:30:44;;;;;;;24.95;23.17;;;12.40;99.90;;;;;;4885346;29;20036;-86
2023/01/06 03:33:25;;;;;;;25.77;23.98;;;12.40;99.90;;;;;;4901555;29;20392;-85
2023/01/06 03:36:10;;;;;;;24.25;22.75;;;12.50;99.90;;;;;;4889809;29;20493;-86
2023/01/06 03:38:44;;;;;;;21.77;20.65;;;12.50;99.90;;;;;;4938263;29;20040;-85
2023/01/06 03:41:15;;;;;;;22.35;21.00;;;12.60;99.90;;;;;;4938131;29;20047;-85
2023/01/06 03:44:00;;;;;;;22.50;21.00;;;12.50;99.90;;;;;;4921158;29;20092;-86
2023/01/06 03:46:47;;;;;;;19.77;18.38;;;12.50;99.90;;;;;;4910840;29;20046;-86
2023/01/06 03:49:30;;;;;;;21.42;19.92;;;12.60;99.90;;;;;;4915285;29;20028;-85
2023/01/06 03:52:10;;;;;;;19.73;18.63;;;12.60;99.90;;;;;;4931549;29;20039;-86
2023/01/06 03:54:41;;;;;;;20.15;18.95;;;12.60;99.90;;;;;;4921509;29;20101;-86
2023/01/06 03:57:16;;;;;;;19.83;18.73;;;12.60;99.90;;;;;;4930623;28;20027;-85
2023/01/06 03:59:48;;;;;;;18.77;17.65;;;12.70;99.90;;;;;;4914880;29;20037;-85
2023/01/06 04:02:14;;;;;;;17.52;16.05;;;12.70;99.90;;;;;;4930935;29;20042;-86
2023/01/06 04:04:40;;;;;;;18.23;17.02;;;12.70;99.90;;;;;;4930051;28;20498;-86
2023/01/06 04:07:06;;;;;;;19.40;18.10;;;12.70;99.90;;;;;;4924030;29;20440;-87
2023/01/06 04:09:32;;;;;;;19.52;17.85;;;12.70;99.90;;;;;;4920464;29;20031;-85
2023/01/06 04:14:43;;;;;;;18.27;16.88;;;12.60;99.90;;;;;;4947630;29;20030;-85
2023/01/06 04:17:09;;;;;;;17.35;16.35;;;12.70;99.90;;;;;;4959956;29;20044;-85
2023/01/06 04:19:35;;;;;;;19.38;18.27;;;12.70;99.90;;;;;;4962183;29;20043;-85
2023/01/06 04:22:01;;;;;;;18.42;17.08;;;12.70;99.90;;;;;;4962523;29;20026;-85
2023/01/06 04:24:28;;;;;;;20.25;18.88;;;12.60;99.90;;;;;;4961700;28;20024;-84
2023/01/06 04:26:54;;;;;;;20.48;19.00;;;12.60;99.90;;;;;;4946131;29;20012;-85
2023/01/06 04:29:21;;;;;;;20.48;19.17;;;12.60;99.90;;;;;;4940645;29;20035;-85
2023/01/06 04:31:48;;;;;;;19.30;17.42;;;12.50;99.90;;;;;;4936894;28;20046;-85
2023/01/06 04:34:14;;;;;;;19.48;18.25;;;12.50;99.90;;;;;;4955872;28;20019;-85
2023/01/06 04:36:40;;;;;;;17.10;15.80;;;12.60;99.90;;;;;;4962062;28;20016;-85
2023/01/06 04:39:06;;;;;;;18.20;16.98;;;12.60;99.90;;;;;;4929197;29;20056;-85
2023/01/06 04:41:32;;;;;;;18.13;16.65;;;12.60;99.90;;;;;;4935906;29;20508;-85
2023/01/06 04:43:58;;;;;;;17.75;16.67;;;12.60;99.90;;;;;;4937212;29;20035;-85
2023/01/06 04:46:24;;;;;;;18.38;17.08;;;12.70;99.90;;;;;;4936535;28;20040;-85
2023/01/06 04:48:51;;;;;;;20.05;18.55;;;12.70;99.90;;;;;;4903804;29;20039;-86
2023/01/06 04:51:17;;;;;;;21.08;19.40;;;12.70;99.90;;;;;;4935869;29;20039;-86
2023/01/06 04:53:43;;;;;;;19.85;18.65;;;12.70;99.90;;;;;;4919446;29;20048;-85
2023/01/06 04:56:10;;;;;;;19.98;18.70;;;12.80;99.90;;;;;;4936831;29;20020;-85
2023/01/06 04:58:37;;;;;;;21.40;19.92;;;12.80;99.90;;;;;;4935908;29;20405;-85
2023/01/06 05:01:08;;;;;;;18.63;17.63;;;12.80;99.90;;;;;;4921872;29;20036;-85
2023/01/06 05:03:34;;;;;;;22.52;20.70;;;12.70;99.90;;;;;;4921982;29;20031;-85
2023/01/06 05:06:08;;;;;;;22.23;20.30;;;12.70;99.90;;;;;;4905910;29;20040;-85
2023/01/06 05:08:35;;;;;;;20.63;19.33;;;12.70;99.90;;;;;;4907991;29;20040;-85
2023/01/06 05:11:03;;;;;;;21.92;20.35;;;12.80;99.90;;;;;;4929420;29;20031;-85
2023/01/06 05:13:30;;;;;;;21.90;20.45;;;12.70;99.90;;;;;;4925806;29;20035;-85
2023/01/06 05:15:56;;;;;;;24.60;22.70;;;12.70;99.90;;;;;;4903548;29;20477;-85
2023/01/06 05:18:22;;;;;;;24.73;22.83;;;12.70;99.90;;;;;;4919547;29;20098;-84
2023/01/06 05:20:52;;;;;;;25.10;23.40;;;12.70;99.90;;;;;;4929231;29;20035;-85
2023/01/06 05:23:19;;;;;;;26.83;24.98;;;12.60;99.90;;;;;;4921603;29;20381;-85
2023/01/06 05:25:45;;;;;;;25.83;23.75;;;12.60;99.90;;;;;;4935861;29;20393;-85
2023/01/06 05:28:12;;;;;;;26.73;24.90;;;12.60;99.90;;;;;;4919390;29;20035;-85
2023/01/06 05:30:38;;;;;;;24.58;22.77;;;12.60;99.90;;;;;;4937128;28;20040;-84
2023/01/06 05:33:04;;;;;;;23.50;21.67;;;12.50;99.90;;;;;;4937060;29;20046;-85
2023/01/06 05:35:30;;;;;;;25.48;23.33;;;12.50;99.90;;;;;;4920299;29;20051;-84
2023/01/06 05:37:56;;;;;;;25.58;23.42;;;12.50;99.90;;;;;;4936119;29;20166;-84
2023/01/06 05:40:22;;;;;;;25.25;23.25;;;12.50;99.90;;;;;;4934707;29;20406;-85
2023/01/06 05:42:53;;;;;;;23.90;21.98;;;12.50;99.90;;;;;;4919113;29;20031;-85
2023/01/06 05:45:19;;;;;;;25.52;22.83;;;12.50;99.90;;;;;;4934924;28;20039;-85
2023/01/06 05:47:45;;;;;;;25.15;23.25;;;12.50;99.90;;;;;;4935898;29;20031;-85
2023/01/06 05:50:11;;;;;;;23.80;21.80;;;12.50;99.90;;;;;;4919422;29;20043;-85
2023/01/06 05:52:37;;;;;;;23.65;21.70;;;12.50;99.90;;;;;;4935523;29;20450;-84
2023/01/06 05:55:04;;;;;;;22.67;20.83;;;12.50;99.90;;;;;;4918807;29;20549;-84
2023/01/06 05:57:34;;;;;;;24.70;22.20;;;12.50;99.90;;;;;;4934446;29;20040;-84
2023/01/06 06:00:00;;;;;;;22.42;20.63;;;12.40;99.90;;;;;;4918387;29;20052;-85
2023/01/06 06:02:26;;;;;;;23.80;21.58;;;12.40;99.90;;;;;;4934392;28;20035;-85
2023/01/06 06:04:52;;;;;;;23.88;21.92;;;12.40;99.90;;;;;;4934474;29;20038;-84
2023/01/06 06:07:18;;;;;;;23.90;22.30;;;12.50;99.90;;;;;;4927552;29;20028;-85
2023/01/06 06:09:44;;;;;;;25.20;22.55;;;12.50;99.90;;;;;;4935655;29;20042;-85
2023/01/06 06:12:11;;;;;;;24.92;22.90;;;12.50;99.90;;;;;;4918771;29;20134;-85
2023/01/06 06:14:37;;;;;;;27.10;24.63;;;12.60;99.90;;;;;;4902875;29;20050;-85
2023/01/06 06:17:04;;;;;;;24.27;21.80;;;12.50;99.90;;;;;;4935354;29;20043;-84
2023/01/06 06:19:30;;;;;;;25.17;23.05;;;12.60;99.90;;;;;;4933437;29;20055;-84
2023/01/06 06:21:56;;;;;;;24.90;23.02;;;12.50;99.90;;;;;;4934585;29;20377;-84
2023/01/06 06:24:22;;;;;;;24.83;23.02;;;12.50;99.90;;;;;;4934178;29;20035;-84
2023/01/06 06:26:48;;;;;;;26.00;23.75;;;12.50;99.90;;;;;;4918325;29;20031;-84
2023/01/06 06:29:14;;;;;;;24.08;22.15;;;12.50;99.90;;;;;;4934539;29;20032;-84
2023/01/06 06:31:40;;;;;;;24.10;22.02;;;12.60;99.90;;;;;;4918000;29;20397;-85
2023/01/06 06:34:09;;;;;;;23.80;21.92;;;12.60;99.90;;;;;;4917927;29;20044;-84
2023/01/06 06:36:35;;;;;;;24.20;21.83;;;12.60;99.90;;;;;;4918300;29;20035;-84
2023/01/06 06:39:01;;;;;;;24.33;22.65;;;12.60;99.90;;;;;;4934159;29;20048;-84
2023/01/06 06:41:27;;;;;;;24.48;22.52;;;12.60;99.90;;;;;;4935266;29;20493;-84
2023/01/06 06:43:53;;;;;;;23.88;22.05;;;12.60;99.90;;;;;;4934472;29;20032;-87
2023/01/06 06:46:19;;;;;;;25.75;23.83;;;12.50;99.90;;;;;;4933475;28;20040;-87
2023/01/06 06:48:46;;;;;;;25.13;23.30;;;12.50;99.90;;;;;;4933651;29;20054;-85
2023/01/06 06:51:15;;;;;;;25.17;23.33;;;12.50;99.90;;;;;;4934478;29;20470;-84
2023/01/06 06:53:41;;;;;;;23.77;21.73;;;12.50;99.90;;;;;;4933745;29;20327;-84
2023/01/06 06:56:08;;;;;;;23.08;20.77;;;12.50;99.90;;;;;;4933777;29;20043;-84
2023/01/06 06:58:34;;;;;;;22.15;20.25;;;12.50;99.90;;;;;;4918084;29;20038;-84
2023/01/06 07:01:08;;;;;;;22.83;19.88;;;12.50;99.90;;;;;;4917639;29;20039;-84
2023/01/06 07:03:34;;;;;;;23.67;21.40;;;12.50;99.90;;;;;;4901458;29;20043;-85
2023/01/06 07:06:02;;;;;;;21.55;19.63;;;12.50;99.90;;;;;;4933867;29;20035;-85
2023/01/06 07:08:28;;;;;;;24.27;20.85;;;12.40;99.90;;;;;;4918200;29;20461;-85
2023/01/06 07:10:54;;;;;;;20.88;19.13;;;12.50;99.90;;;;;;4901856;29;20044;-84
2023/01/06 07:13:20;;;;;;;19.42;18.17;;;12.50;99.90;;;;;;4902465;29;20032;-85
2023/01/06 07:15:46;;;;;;;21.17;19.10;;;12.50;99.90;;;;;;4917713;29;20051;-84
2023/01/06 07:18:12;;;;;;;21.13;19.48;;;12.50;99.90;;;;;;4934551;29;20039;-84
2023/01/06 07:20:38;;;;;;;19.15;17.65;;;12.50;99.90;;;;;;4908192;29;20052;-84
2023/01/06 07:23:04;;;;;;;19.10;17.63;;;12.50;99.90;;;;;;4933764;29;20042;-84
2023/01/06 07:25:31;;;;;;;20.85;18.90;;;12.50;99.90;;;;;;4934797;29;20417;-84
2023/01/06 07:27:58;;;;;;;18.90;17.17;;;12.50;99.90;;;;;;4933711;29;20065;-84
2023/01/06 07:30:25;;;;;;;17.95;16.85;;;12.60;99.90;;;;;;4933124;28;20142;-84
2023/01/06 07:32:52;;;;;;;19.50;17.73;;;12.60;99.90;;;;;;4934464;29;20036;-84
2023/01/06 07:35:18;;;;;;;17.98;16.55;;;12.60;99.90;;;;;;4917814;29;20032;-84
2023/01/06 07:37:44;;;;;;;20.23;18.73;;;12.60;99.90;;;;;;4917784;29;20043;-84
2023/01/06 07:40:11;;;;;;;20.27;18.63;;;12.60;99.90;;;;;;4934735;29;20074;-84
2023/01/06 07:42:37;;;;;;;20.58;18.80;;;12.60;99.90;;;;;;4937075;29;20059;-84
2023/01/06 07:45:03;;;;;;;20.27;18.58;;;12.60;99.90;;;;;;4936438;28;20486;-84
2023/01/06 07:47:30;;;;;;;19.30;17.77;;;12.70;99.90;;;;;;4936483;29;20473;-84
2023/01/06 07:49:56;;;;;;;19.25;17.83;;;12.60;99.90;;;;;;4905210;29;20047;-84
2023/01/06 07:52:22;;;;;;;18.63;17.23;;;12.60;99.90;;;;;;4938144;29;20023;-85
2023/01/06 07:54:48;;;;;;;19.58;18.30;;;12.70;99.90;;;;;;4936810;29;20034;-85
2023/01/06 07:57:14;;;;;;;19.05;17.85;;;12.60;99.90;;;;;;4921039;29;20028;-85
2023/01/06 07:59:40;;;;;;;20.30;18.55;;;12.60;99.90;;;;;;4937848;29;20039;-85
2023/01/06 08:02:08;;;;;;;20.00;18.38;;;12.50;99.90;;;;;;4920013;29;20377;-85
2023/01/06 08:04:34;;;;;;;19.42;17.80;;;12.60;99.90;;;;;;4920825;29;20039;-84
2023/01/06 08:07:00;;;;;;;19.67;18.17;;;12.60;99.90;;;;;;4931840;29;20031;-85
2023/01/06 08:09:26;;;;;;;19.42;18.02;;;12.60;99.90;;;;;;4905334;29;20100;-84
2023/01/06 08:11:52;;;;;;;19.35;17.50;;;12.50;99.90;;;;;;4938468;29;20035;-85
2023/01/06 08:14:18;;;;;;;18.88;17.50;;;12.60;99.90;;;;;;4905248;29;20358;-85
2023/01/06 08:16:45;;;;;;;19.90;18.73;;;12.60;99.90;;;;;;4936798;28;20040;-85
2023/01/06 08:19:11;;;;;;;18.70;17.45;;;12.60;99.90;;;;;;4937556;29;20035;-85
2023/01/06 08:21:37;;;;;;;18.23;16.90;;;12.50;99.90;;;;;;4935634;29;20051;-85
2023/01/06 08:24:04;;;;;;;17.27;16.00;;;12.50;99.90;;;;;;4920525;29;20031;-85
2023/01/06 08:26:30;;;;;;;19.70;18.05;;;12.50;99.90;;;;;;4936295;29;20046;-84
2023/01/06 08:28:56;;;;;;;21.20;19.77;;;12.50;99.90;;;;;;4904121;29;20042;-85
2023/01/06 08:31:22;;;;;;;21.92;20.50;;;12.60;99.90;;;;;;4919428;28;20052;-85
2023/01/06 08:33:49;;;;;;;23.10;21.50;;;12.70;99.90;;;;;;4920637;29;20032;-85
2023/01/06 08:36:16;;;;;;;23.60;21.90;;;12.70;99.90;;;;;;4904391;29;20047;-84
2023/01/06 08:38:43;;;;;;;25.08;23.52;;;12.70;99.90;;;;;;4920493;29;20046;-85
2023/01/06 08:41:09;;;;;;;25.77;24.25;;;12.70;99.90;;;;;;4935806;29;20077;-85
2023/01/06 08:43:35;;;;;;;27.08;25.08;;;12.60;99.90;;;;;;4919894;29;20058;-85
2023/01/06 08:46:02;;;;;;;25.05;23.33;;;12.60;99.90;;;;;;4935076;28;20035;-86
2023/01/06 08:48:29;;;;;;;26.00;24.20;;;12.70;99.90;;;;;;4920061;29;20035;-86
2023/01/06 08:50:55;;;;;;;23.05;21.40;;;12.70;99.90;;;;;;4919731;29;20039;-85
2023/01/06 08:53:21;;;;;;;22.13;20.63;;;12.80;99.90;;;;;;4935723;29;20034;-85
2023/01/06 08:55:48;;;;;;;23.55;21.80;;;12.80;99.90;;;;;;4919757;29;20040;-85
2023/01/06 08:58:14;;;;;;;23.20;21.77;;;12.80;99.90;;;;;;4936876;29;20043;-85
2023/01/06 09:00:40;;;;;;;20.85;19.55;;;12.80;99.90;;;;;;4918477;28;20481;-85
2023/01/06 09:03:06;;;;;;;19.00;17.88;;;12.70;99.90;;;;;;4919825;29;20461;-85
2023/01/06 09:05:33;;;;;;;18.80;17.52;;;12.70;99.90;;;;;;4919652;29;20043;-85
2023/01/06 09:07:59;;;;;;;21.00;19.65;;;12.80;99.90;;;;;;4907485;29;20035;-85
2023/01/06 09:10:25;;;;;;;19.48;18.05;;;12.70;99.90;;;;;;4919848;29;20047;-85
2023/01/06 09:12:51;;;;;;;21.23;19.65;;;12.70;99.90;;;;;;4919559;29;20032;-85
2023/01/06 09:15:17;;;;;;;20.55;19.08;;;12.70;99.90;;;;;;4886858;28;20058;-85
2023/01/06 09:17:43;;;;;;;19.25;17.83;;;12.70;99.90;;;;;;4903950;29;20035;-85
2023/01/06 09:20:09;;;;;;;19.90;18.67;;;12.80;99.90;;;;;;4906630;29;20576;-85
2023/01/06 09:22:36;;;;;;;17.98;16.67;;;12.80;99.90;;;;;;4919350;29;20043;-85
2023/01/06 09:25:02;;;;;;;18.33;17.23;;;12.80;99.90;;;;;;4935143;29;20367;-84
2023/01/06 09:27:28;;;;;;;20.83;19.35;;;12.80;99.90;;;;;;4936423;29;20038;-85
2023/01/06 09:29:54;;;;;;;18.95;17.75;;;12.80;99.90;;;;;;4934658;29;20092;-84
2023/01/06 09:32:20;;;;;;;19.75;18.45;;;12.80;99.90;;;;;;4934551;28;20039;-85
2023/01/06 09:34:47;;;;;;;19.42;17.98;;;12.80;99.90;;;;;;4936082;29;20032;-85
2023/01/06 09:37:13;;;;;;;19.20;17.80;;;12.90;99.90;;;;;;4934881;29;20043;-85
2023/01/06 09:39:39;;;;;;;19.30;17.80;;;12.90;99.90;;;;;;4935949;29;20393;-85
2023/01/06 09:42:09;;;;;;;18.23;16.95;;;12.90;99.90;;;;;;4934738;29;20058;-85
2023/01/06 09:44:43;;;;;;;18.63;17.38;;;12.90;99.90;;;;;;4934504;29;20047;-85
2023/01/06 09:47:09;;;;;;;18.67;17.42;;;13.00;99.90;;;;;;4918491;29;20039;-85
2023/01/06 09:49:42;;;;;;;19.88;18.58;;;12.90;99.90;;;;;;4918830;29;20024;-85
2023/01/06 09:52:32;;;;;;;19.88;18.35;;;13.00;99.90;;;;;;4934758;29;20036;-84
2023/01/06 09:55:06;;;;;;;18.13;16.83;;;13.10;99.90;;;;;;4911646;29;20043;-85
2023/01/06 09:57:34;;;;;;;18.70;17.25;;;13.10;99.90;;;;;;4934293;29;20465;-84
2023/01/06 10:00:14;;;;;;;17.98;16.38;;;13.10;99.90;;;;;;4934500;29;20035;-84
2023/01/06 10:02:40;;;;;;;17.77;16.20;;;13.20;99.90;;;;;;4917390;29;20028;-85
2023/01/06 10:05:31;;;;;;;19.55;18.08;;;13.20;99.90;;;;;;4902308;29;20051;-85
2023/01/06 10:07:57;;;;;;;;;;;13.30;99.90;;;;;;4907963;29;20437;-85
2023/01/06 10:11:03;;;;;;;17.83;16.40;;;13.30;99.90;;;;;;4935680;29;20387;-85
2023/01/06 10:13:42;;;;;;;17.77;16.52;;;13.30;99.90;;;;;;4920752;29;20460;-84
2023/01/06 10:16:11;;;;;;;16.52;15.35;;;13.40;99.90;;;;;;4918104;29;20417;-85
2023/01/06 10:18:52;;;;;;;17.77;16.38;;;13.40;99.90;;;;;;4935409;29;20035;-85
2023/01/06 10:21:41;;;;;;;18.17;16.67;;;13.40;99.90;;;;;;4930528;29;20044;-85
2023/01/06 10:24:27;;;;;;;19.70;18.40;;;13.40;99.90;;;;;;4918559;29;20035;-84
2023/01/06 10:26:58;;;;;;;18.02;16.92;;;13.40;99.90;;;;;;4933757;29;20043;-85
2023/01/06 10:29:29;;;;;;;14.83;13.90;;;13.40;99.90;;;;;;4918654;29;20035;-84
2023/01/06 10:31:55;;;;;;;20.00;18.08;;;13.40;99.90;;;;;;4901711;29;20279;-84
2023/01/06 10:34:23;;;;;;;20.48;18.55;;;13.40;99.90;;;;;;4901982;29;20054;-85
2023/01/06 10:37:11;;;;;;;18.65;17.25;;;13.40;99.90;;;;;;4934027;29;20027;-85
2023/01/06 10:39:38;;;;;;;19.70;18.30;;;13.40;99.90;;;;;;4935130;29;20043;-84
2023/01/06 10:45:11;;;;;;;20.13;18.23;;;13.50;99.90;;;;;;4937442;28;20043;-85
2023/01/06 10:47:37;;;;;;;18.15;16.73;;;13.50;99.90;;;;;;4901901;29;20043;-84
2023/01/06 10:50:03;;;;;;;18.50;17.20;;;13.60;99.90;;;;;;4901752;29;20044;-84
2023/01/06 10:52:29;;;;;;;17.35;16.08;;;13.60;99.90;;;;;;4917958;29;20039;-85
2023/01/06 10:54:58;;;;;;;18.60;17.40;;;13.70;99.90;;;;;;4917866;29;20386;-84
2023/01/06 10:57:32;;;;;;;18.88;17.58;;;13.70;99.90;;;;;;4918244;29;20030;-84
2023/01/06 11:00:08;;;;;;;18.05;16.75;;;13.70;99.90;;;;;;4917993;29;20040;-84
2023/01/06 11:02:34;;;;;;;20.17;18.42;;;13.80;99.90;;;;;;4932983;29;20047;-85
2023/01/06 11:05:00;;;;;;;16.88;15.77;;;13.80;99.90;;;;;;4901676;29;20032;-84
2023/01/06 11:07:27;;;;;;;17.13;16.10;;;13.80;99.90;;;;;;4910118;29;20043;-85
2023/01/06 11:09:54;;;;;;;20.25;18.85;;;13.90;99.90;;;;;;4902145;29;20031;-85
2023/01/06 11:12:22;;;;;;;18.75;17.30;;;14.00;99.90;;;;;;4918005;29;20023;-84
2023/01/06 11:15:02;;;;;;;18.52;17.35;;;14.10;99.90;;;;;;4904826;29;20027;-84
2023/01/06 11:17:28;;;;;;;19.73;18.33;;;14.10;99.90;;;;;;4921175;29;20498;-84
2023/01/06 11:20:12;;;;;;;18.42;17.27;;;14.10;99.90;;;;;;4906851;29;20047;-85
2023/01/06 11:22:39;;;;;;;19.08;17.55;;;14.10;99.90;;;;;;4938780;29;20032;-86
2023/01/06 11:25:21;;;;;;;17.50;16.42;;;14.10;99.90;;;;;;4921116;29;20385;-85
2023/01/06 11:27:48;;;;;;;19.40;17.90;;;14.20;99.90;;;;;;4938553;29;20489;-85
2023/01/06 11:30:27;;;;;;;17.33;15.95;;;14.20;99.90;;;;;;4936819;28;20466;-85
2023/01/06 11:32:53;;;;;;;19.42;17.92;;;14.20;99.90;;;;;;4921523;29;20037;-84
2023/01/06 11:35:20;;;;;;;17.13;15.77;;;14.20;99.90;;;;;;4937214;29;20032;-85
2023/01/06 11:37:47;;;;;;;15.25;14.25;;;14.30;99.90;;;;;;4921232;29;20060;-85
2023/01/06 11:40:30;;;;;;;15.52;14.55;;;14.30;99.90;;;;;;4920229;29;20497;-85
2023/01/06 11:43:01;;;;;;;14.75;13.73;;;14.30;99.90;;;;;;4921370;29;20024;-85
2023/01/06 11:45:34;;;;;;;14.57;13.27;;;14.40;99.90;;;;;;4920907;28;20489;-85
2023/01/06 11:48:12;;;;;;;13.82;12.73;;;14.30;99.90;;;;;;4937078;29;20389;-84
2023/01/06 11:50:38;;;;;;;15.50;14.30;;;14.40;99.90;;;;;;4905489;29;20043;-85
2023/01/06 11:53:15;;;;;;;14.90;13.65;;;14.30;99.90;;;;;;4938629;29;20463;-85
2023/01/06 11:55:41;;;;;;;16.35;15.13;;;14.40;99.90;;;;;;4936808;29;20050;-85
2023/01/06 11:58:12;;;;;;;15.43;14.07;;;14.40;99.90;;;;;;4921052;29;20393;-85
2023/01/06 12:00:59;;;;;;;14.50;13.40;;;14.30;99.90;;;;;;4920375;28;20066;-85
2023/01/06 12:03:42;;;;;;;15.40;14.10;;;14.30;99.90;;;;;;4905023;29;20044;-85
2023/01/06 12:06:33;;;;;;;12.70;11.77;;;14.30;99.90;;;;;;4904794;29;20035;-85
2023/01/06 12:09:11;;;;;;;13.98;13.07;;;14.30;99.90;;;;;;4905815;29;20032;-85
2023/01/06 12:11:50;;;;;;;13.90;13.00;;;14.40;99.90;;;;;;4921808;29;20401;-85
2023/01/06 12:14:21;;;;;;;14.40;13.38;;;14.40;99.90;;;;;;4904693;29;20035;-85
2023/01/06 12:17:09;;;;;;;16.80;15.50;;;14.50;99.90;;;;;;4904977;29;20054;-85
2023/01/06 12:19:49;;;;;;;13.88;12.52;;;14.50;99.90;;;;;;4920464;29;20027;-85
2023/01/06 12:22:29;;;;;;;15.23;14.20;;;14.50;99.90;;;;;;4936289;29;20047;-85
2023/01/06 12:24:55;;;;;;;15.23;13.98;;;14.50;99.90;;;;;;4919971;29;20031;-85
2023/01/06 12:27:29;;;;;;;16.30;15.30;;;14.50;99.90;;;;;;4936118;29;20031;-85
2023/01/06 12:29:57;;;;;;;13.63;12.70;;;14.40;99.90;;;;;;4920381;29;20462;-85
2023/01/06 12:32:26;;;;;;;14.00;13.20;;;14.40;99.90;;;;;;4919959;28;20032;-85
2023/01/06 12:34:52;;;;;;;15.70;14.52;;;14.50;99.90;;;;;;4920740;29;20028;-84
2023/01/06 12:37:25;;;;;;;14.57;13.48;;;14.50;99.90;;;;;;4919460;29;20409;-85
2023/01/06 12:40:15;;;;;;;16.25;15.15;;;14.50;99.90;;;;;;4919932;29;20028;-85
2023/01/06 12:42:58;;;;;;;14.10;13.00;;;14.50;99.90;;;;;;4935753;29;20062;-84
2023/01/06 12:45:52;;;;;;;14.55;13.45;;;14.40;99.90;;;;;;4935497;28;20618;-85
2023/01/06 12:48:43;;;;;;;12.85;12.02;;;14.40;99.90;;;;;;4937044;29;20410;-84
2023/01/06 12:51:17;;;;;;;13.77;12.90;;;14.40;99.90;;;;;;4919544;29;20485;-84